Terminal Aerodrome Forecast
Issued by NWS

Home | Current Version | Previous Version | Graphics & Text | Print | Product List | Glossary On
Versions: 1 2 3 4 5 6 7 8 9 10 11 12 13 14 15 16 17
000
FTUS43 KGRB 060520
TAFAUW
TAF
KAUW 060520Z 0606/0706 15006KT 6SM BR BKN250 WS010/22035KT
     FM061200 19009G18KT P6SM VCSH SCT025 OVC050 PROB30 0615/0618
      2SM TSRA BR SCT009 OVC025CB
     FM061800 19010G18KT 5SM -RA BR SCT012 BKN025
      TEMPO 0621/0701 2SM +TSRA OVC020CB
     FM070100 33010KT 6SM -SHRA SCT009 BKN015=

USA.gov is the U.S. government's official web portal to all federal, state and local government web resources and services.